Time;durP1;ratioP1;P1;durP2;ratioP2;P2;SDS_P1;SDS_P2;PMS_P1;PMS_P2;Temp;Humidity;BMP_temperature;BMP_pressure;BME280_temperature;BME280_humidity;BME280_pressure;Samples;Min_cycle;Max_cycle;Signal;HPM_P1;HPM_P2
2022/08/31 00:06:15;;;;;;;1.23;0.60;;;16.40;99.30;;;;;;5111524;27;20130;-66
2022/08/31 00:08:41;;;;;;;3.50;0.70;;;16.30;99.30;;;;;;5113069;27;20043;-67
2022/08/31 00:11:09;;;;;;;2.58;0.75;;;16.30;99.40;;;;;;5108396;28;20059;-67
2022/08/31 00:13:35;;;;;;;1.70;0.77;;;16.30;99.40;;;;;;5110000;27;20048;-66
2022/08/31 00:16:01;;;;;;;1.95;0.77;;;16.30;99.50;;;;;;5107852;28;20044;-67
2022/08/31 00:18:27;;;;;;;2.42;0.60;;;16.30;99.60;;;;;;5093387;28;20043;-66
2022/08/31 00:20:53;;;;;;;2.00;0.52;;;16.30;99.60;;;;;;5112688;27;20040;-66
2022/08/31 00:23:20;;;;;;;1.48;0.60;;;16.20;99.60;;;;;;5094770;28;20039;-67
2022/08/31 00:25:48;;;;;;;1.25;0.55;;;16.20;99.70;;;;;;5118354;27;20092;-65
2022/08/31 00:28:15;;;;;;;0.68;0.50;;;16.20;99.70;;;;;;5115276;27;20043;-68
2022/08/31 00:30:42;;;;;;;1.60;0.80;;;16.20;99.80;;;;;;5128611;27;20050;-67
2022/08/31 00:33:10;;;;;;;2.22;0.70;;;16.20;99.70;;;;;;5110590;28;20118;-67
2022/08/31 00:35:37;;;;;;;1.80;0.70;;;16.10;99.60;;;;;;5118913;27;20497;-65
2022/08/31 00:38:04;;;;;;;1.45;0.50;;;16.10;99.60;;;;;;5111920;27;20039;-66
2022/08/31 00:40:32;;;;;;;0.88;0.60;;;16.10;99.90;;;;;;5109747;28;20406;-65
2022/08/31 00:42:59;;;;;;;2.05;0.55;;;16.10;99.60;;;;;;5108661;28;20067;-65
2022/08/31 00:45:24;;;;;;;1.67;0.60;;;16.10;99.50;;;;;;5109913;28;20047;-65
2022/08/31 00:47:50;;;;;;;0.80;0.60;;;16.00;99.40;;;;;;5126201;27;20718;-66
2022/08/31 00:50:18;;;;;;;2.45;0.70;;;16.00;99.30;;;;;;5109199;28;20047;-66
2022/08/31 00:52:49;;;;;;;0.63;0.50;;;16.00;99.30;;;;;;5110558;28;20036;-64
2022/08/31 00:55:19;;;;;;;3.58;0.50;;;16.00;99.10;;;;;;5110983;28;20035;-67
2022/08/31 00:57:51;;;;;;;1.15;0.50;;;15.90;99.20;;;;;;5130726;27;20080;-63
2022/08/31 01:00:20;;;;;;;0.73;0.50;;;15.90;98.70;;;;;;5111452;27;20043;-65
2022/08/31 01:02:47;;;;;;;1.42;0.60;;;15.90;98.60;;;;;;5109171;27;20035;-64
2022/08/31 01:05:14;;;;;;;2.92;0.55;;;15.80;98.20;;;;;;5124657;27;20036;-66
2022/08/31 01:07:43;;;;;;;0.50;0.50;;;15.80;98.10;;;;;;5110304;27;20126;-64
2022/08/31 01:10:09;;;;;;;0.85;0.47;;;15.80;97.90;;;;;;5108644;28;20043;-63
2022/08/31 01:12:35;;;;;;;0.50;0.50;;;15.80;97.80;;;;;;5111289;27;20444;-66
2022/08/31 01:15:05;;;;;;;0.77;0.52;;;15.80;97.70;;;;;;5090308;28;20051;-65
2022/08/31 01:17:33;;;;;;;1.42;0.50;;;15.80;97.50;;;;;;5109100;28;20147;-66
2022/08/31 01:20:24;;;;;;;0.60;0.32;;;15.80;97.20;;;;;;5112638;27;20078;-69
2022/08/31 01:23:01;;;;;;;1.90;0.55;;;15.70;97.00;;;;;;5108457;28;20370;-66
2022/08/31 01:25:28;;;;;;;0.50;0.40;;;15.70;96.90;;;;;;5112337;27;20027;-68
2022/08/31 01:27:55;;;;;;;2.92;0.50;;;15.70;96.90;;;;;;5110452;28;20046;-67
2022/08/31 01:30:23;;;;;;;1.48;0.40;;;15.70;96.90;;;;;;5119134;27;20040;-66
2022/08/31 01:32:49;;;;;;;0.55;0.50;;;15.60;96.60;;;;;;5109094;28;20051;-66
2022/08/31 01:35:15;;;;;;;3.60;1.02;;;15.60;96.70;;;;;;5122297;27;20040;-63
2022/08/31 01:37:41;;;;;;;1.27;0.50;;;15.50;96.90;;;;;;5112610;27;20449;-66
2022/08/31 01:40:08;;;;;;;0.50;0.50;;;15.50;96.80;;;;;;5123073;27;20489;-65
2022/08/31 01:42:33;;;;;;;1.10;0.57;;;15.50;96.90;;;;;;5107697;28;20112;-65
2022/08/31 01:44:59;;;;;;;1.52;0.47;;;15.40;96.80;;;;;;5111953;27;20063;-65
2022/08/31 01:47:25;;;;;;;0.40;0.40;;;15.40;96.80;;;;;;5112201;27;20031;-68
2022/08/31 01:49:50;;;;;;;3.47;1.13;;;15.40;96.80;;;;;;5091655;28;20146;-65
2022/08/31 01:52:16;;;;;;;3.28;0.60;;;15.30;96.70;;;;;;5106092;28;20035;-68
2022/08/31 01:54:41;;;;;;;0.90;0.50;;;15.30;96.70;;;;;;5112766;28;20039;-68
2022/08/31 01:57:09;;;;;;;1.52;0.47;;;15.30;96.70;;;;;;5108112;28;20035;-66
2022/08/31 01:59:35;;;;;;;2.28;0.70;;;15.20;96.70;;;;;;5108138;28;20133;-64
2022/08/31 02:02:00;;;;;;;1.48;0.40;;;15.20;96.80;;;;;;5108206;28;20434;-69
2022/08/31 02:04:27;;;;;;;0.95;0.50;;;15.20;96.90;;;;;;5108765;28;20451;-67
2022/08/31 02:06:57;;;;;;;0.65;0.40;;;15.10;97.00;;;;;;5108967;28;20047;-67
2022/08/31 02:09:24;;;;;;;1.13;0.45;;;15.10;97.00;;;;;;5110073;28;20490;-65
2022/08/31 02:11:50;;;;;;;0.50;0.38;;;15.00;96.90;;;;;;5112639;27;20042;-64
2022/08/31 02:14:17;;;;;;;0.57;0.40;;;15.00;97.00;;;;;;5107806;28;20397;-66
2022/08/31 02:16:43;;;;;;;0.40;0.40;;;14.90;97.00;;;;;;5107861;28;20472;-66
2022/08/31 02:19:09;;;;;;;1.83;0.40;;;14.90;97.20;;;;;;5124057;28;20060;-66
2022/08/31 02:21:36;;;;;;;1.45;0.50;;;14.90;97.20;;;;;;5113661;27;20032;-65
2022/08/31 02:24:02;;;;;;;0.40;0.38;;;14.80;97.00;;;;;;5110971;28;20075;-65
2022/08/31 02:26:27;;;;;;;1.73;0.30;;;14.80;97.10;;;;;;5112687;27;20075;-67
2022/08/31 02:28:53;;;;;;;0.60;0.50;;;14.80;97.20;;;;;;5132985;27;20035;-65
2022/08/31 02:31:19;;;;;;;1.42;0.40;;;14.70;97.20;;;;;;5114132;27;20122;-68
2022/08/31 02:33:44;;;;;;;0.80;0.38;;;14.70;97.30;;;;;;5093852;28;20485;-65
2022/08/31 02:36:11;;;;;;;1.77;0.40;;;14.60;97.30;;;;;;5112374;28;20035;-68
2022/08/31 02:38:37;;;;;;;1.80;0.40;;;14.60;97.40;;;;;;5113788;28;20031;-67
2022/08/31 02:41:05;;;;;;;0.68;0.40;;;14.50;97.40;;;;;;5098255;28;20457;-66
2022/08/31 02:43:31;;;;;;;1.10;0.38;;;14.50;97.40;;;;;;5113754;27;20096;-67
2022/08/31 02:45:57;;;;;;;0.70;0.40;;;14.40;97.50;;;;;;5116498;27;20045;-66
2022/08/31 02:48:22;;;;;;;0.50;0.45;;;14.40;97.60;;;;;;5112280;27;20498;-70
2022/08/31 02:50:50;;;;;;;4.05;1.02;;;14.40;97.70;;;;;;5101523;28;20498;-66
2022/08/31 02:53:18;;;;;;;0.63;0.40;;;14.30;97.80;;;;;;5112660;28;20039;-64
2022/08/31 02:55:44;;;;;;;0.70;0.45;;;14.20;97.70;;;;;;5113765;27;20039;-67
2022/08/31 02:58:11;;;;;;;0.68;0.40;;;14.20;97.90;;;;;;5130734;27;20380;-66
2022/08/31 03:00:39;;;;;;;4.15;0.40;;;14.20;97.90;;;;;;5101818;28;20124;-64
2022/08/31 03:03:04;;;;;;;1.05;0.40;;;14.10;98.00;;;;;;5114625;27;20054;-68
2022/08/31 03:05:30;;;;;;;0.57;0.40;;;14.10;98.00;;;;;;5112003;27;20478;-67
2022/08/31 03:07:56;;;;;;;0.93;0.40;;;14.00;98.10;;;;;;5111758;28;20043;-66
2022/08/31 03:10:24;;;;;;;1.27;0.47;;;14.00;98.10;;;;;;5121043;27;20498;-66
2022/08/31 03:12:51;;;;;;;0.57;0.40;;;13.90;98.20;;;;;;5122591;27;20393;-65
2022/08/31 03:15:18;;;;;;;0.55;0.40;;;13.90;98.30;;;;;;5122473;27;20043;-66
2022/08/31 03:17:44;;;;;;;0.70;0.43;;;13.80;98.30;;;;;;5112132;28;20083;-68
2022/08/31 03:20:10;;;;;;;1.27;0.47;;;13.80;98.20;;;;;;5111327;27;20092;-65
2022/08/31 03:22:37;;;;;;;0.98;0.30;;;13.70;98.30;;;;;;5111347;27;20088;-64
2022/08/31 03:25:04;;;;;;;1.17;0.30;;;13.70;98.20;;;;;;5110568;28;20436;-64
2022/08/31 03:27:30;;;;;;;0.40;0.40;;;13.70;98.30;;;;;;5113483;27;20405;-68
2022/08/31 03:29:57;;;;;;;0.50;0.38;;;13.60;98.30;;;;;;5125669;27;20114;-65
2022/08/31 03:32:23;;;;;;;0.40;0.40;;;13.60;98.40;;;;;;5121028;27;20047;-65
2022/08/31 03:34:57;;;;;;;1.33;0.40;;;13.60;98.40;;;;;;5114250;27;20439;-68
2022/08/31 03:37:23;;;;;;;0.35;0.30;;;13.50;98.40;;;;;;5112148;28;20052;-65
2022/08/31 03:39:49;;;;;;;0.95;0.40;;;13.50;98.50;;;;;;5123992;27;20390;-64
2022/08/31 03:42:15;;;;;;;0.70;0.40;;;13.50;98.60;;;;;;5114253;27;20047;-65
2022/08/31 03:44:41;;;;;;;0.65;0.40;;;13.40;98.70;;;;;;5122112;27;20410;-65
2022/08/31 03:47:07;;;;;;;0.88;0.45;;;13.40;98.70;;;;;;5111238;28;20043;-66
2022/08/31 03:49:33;;;;;;;1.42;0.40;;;13.40;98.90;;;;;;5107924;28;20031;-67
2022/08/31 03:51:58;;;;;;;0.50;0.50;;;13.30;99.00;;;;;;5111375;28;20039;-65
2022/08/31 03:54:24;;;;;;;0.73;0.40;;;13.30;99.10;;;;;;5112525;28;20478;-65
2022/08/31 03:56:49;;;;;;;0.40;0.40;;;13.30;99.20;;;;;;5128206;27;20419;-65
2022/08/31 03:59:15;;;;;;;0.40;0.40;;;13.20;99.30;;;;;;5123266;27;20039;-64
2022/08/31 04:01:41;;;;;;;0.80;0.57;;;13.20;99.40;;;;;;5120321;27;20099;-65
2022/08/31 04:04:06;;;;;;;0.60;0.45;;;13.20;99.80;;;;;;5110480;28;20095;-68
2022/08/31 04:06:32;;;;;;;1.88;0.60;;;13.20;99.70;;;;;;5111641;27;20085;-65
2022/08/31 04:08:58;;;;;;;1.85;0.50;;;13.10;99.80;;;;;;5129444;27;20046;-66
2022/08/31 04:11:26;;;;;;;0.90;0.50;;;13.10;99.90;;;;;;5109375;28;20124;-63
2022/08/31 04:13:51;;;;;;;0.60;0.50;;;13.10;99.90;;;;;;5122827;27;20036;-69
2022/08/31 04:16:20;;;;;;;1.05;0.60;;;13.10;99.90;;;;;;5111480;28;20031;-66
2022/08/31 04:18:46;;;;;;;1.60;0.47;;;13.00;99.90;;;;;;5102343;28;20100;-70
2022/08/31 04:21:12;;;;;;;0.60;0.50;;;13.00;99.90;;;;;;5115133;27;20043;-68
2022/08/31 04:23:39;;;;;;;0.68;0.50;;;13.00;99.90;;;;;;5129751;27;20039;-65
2022/08/31 04:26:25;;;;;;;0.80;0.50;;;13.00;99.90;;;;;;5116763;27;20047;-66
2022/08/31 04:28:51;;;;;;;0.98;0.40;;;12.90;99.90;;;;;;5093198;28;20126;-70
2022/08/31 04:31:19;;;;;;;2.92;0.60;;;12.90;99.90;;;;;;5112379;27;20127;-64
2022/08/31 04:33:45;;;;;;;1.42;0.43;;;12.90;99.90;;;;;;5118441;27;20039;-65
2022/08/31 04:36:16;;;;;;;0.57;0.40;;;12.90;99.90;;;;;;5112966;27;20045;-67
2022/08/31 04:38:43;;;;;;;1.48;0.63;;;12.90;99.90;;;;;;5112650;27;20366;-68
2022/08/31 04:41:11;;;;;;;1.63;0.50;;;12.90;99.90;;;;;;5109807;28;20054;-67
2022/08/31 04:43:39;;;;;;;0.60;0.50;;;12.80;99.90;;;;;;5106934;28;20055;-68
2022/08/31 04:46:07;;;;;;;0.57;0.50;;;12.90;99.90;;;;;;5114558;27;20114;-63
2022/08/31 04:48:33;;;;;;;1.58;0.70;;;12.90;99.90;;;;;;5109233;28;21691;-66
2022/08/31 04:51:05;;;;;;;1.65;0.47;;;12.90;99.90;;;;;;5113634;27;20048;-67
2022/08/31 04:53:31;;;;;;;3.03;0.65;;;12.90;99.90;;;;;;5107852;28;20100;-67
2022/08/31 04:55:58;;;;;;;2.08;0.50;;;12.80;99.90;;;;;;5117841;27;20038;-65
2022/08/31 04:58:23;;;;;;;2.72;0.50;;;12.80;99.90;;;;;;5127866;27;20047;-67
2022/08/31 05:00:51;;;;;;;2.80;0.60;;;12.80;99.90;;;;;;5089641;28;20043;-66
2022/08/31 05:03:18;;;;;;;0.95;0.50;;;12.80;99.90;;;;;;5113036;27;20104;-67
2022/08/31 05:05:49;;;;;;;0.98;0.50;;;12.80;99.90;;;;;;5108956;28;20044;-65
2022/08/31 05:08:15;;;;;;;1.20;0.50;;;12.90;99.90;;;;;;5110598;27;20067;-66
2022/08/31 05:10:41;;;;;;;1.75;0.63;;;12.80;99.90;;;;;;5113323;27;20039;-66
2022/08/31 05:13:07;;;;;;;1.60;0.60;;;12.80;99.90;;;;;;5113635;27;20498;-65
2022/08/31 05:15:33;;;;;;;1.00;0.60;;;12.90;99.90;;;;;;5110462;27;20040;-66
2022/08/31 05:17:59;;;;;;;2.13;0.70;;;12.80;99.90;;;;;;5107236;28;20050;-67
2022/08/31 05:20:25;;;;;;;1.90;0.70;;;12.80;99.90;;;;;;5108615;28;20047;-63
2022/08/31 05:22:51;;;;;;;2.35;0.70;;;12.80;99.90;;;;;;5107671;28;20035;-64
2022/08/31 05:25:16;;;;;;;2.58;0.73;;;12.80;99.90;;;;;;5110989;28;20088;-66
2022/08/31 05:27:42;;;;;;;1.67;0.68;;;12.80;99.90;;;;;;5109062;28;20035;-67
2022/08/31 05:30:08;;;;;;;1.15;0.60;;;12.80;99.90;;;;;;5109252;28;20405;-66
2022/08/31 05:32:34;;;;;;;1.00;0.50;;;12.80;99.90;;;;;;5100440;28;20059;-63
2022/08/31 05:35:00;;;;;;;2.20;0.60;;;12.80;99.90;;;;;;5107928;28;20374;-66
2022/08/31 05:37:26;;;;;;;0.77;0.70;;;12.90;99.90;;;;;;5114999;27;20486;-66
2022/08/31 05:39:51;;;;;;;0.95;0.60;;;12.90;99.90;;;;;;5093221;28;20177;-63
2022/08/31 05:42:19;;;;;;;3.25;0.70;;;13.00;99.90;;;;;;5109869;27;20116;-69
2022/08/31 05:44:46;;;;;;;1.00;0.60;;;13.00;99.90;;;;;;5121203;27;20054;-65
2022/08/31 05:47:11;;;;;;;1.98;0.60;;;13.10;99.90;;;;;;5118378;28;20053;-65
2022/08/31 05:49:38;;;;;;;2.53;0.65;;;13.10;99.90;;;;;;5105095;28;20035;-67
2022/08/31 05:52:05;;;;;;;2.17;0.57;;;13.20;99.90;;;;;;5107875;28;20051;-65
2022/08/31 05:54:34;;;;;;;1.17;0.60;;;13.20;99.90;;;;;;5109985;28;20062;-66
2022/08/31 05:57:00;;;;;;;1.63;0.65;;;13.30;99.90;;;;;;5115535;27;20043;-66
2022/08/31 05:59:25;;;;;;;0.90;0.60;;;13.30;99.90;;;;;;5114512;27;20027;-64
2022/08/31 06:01:51;;;;;;;0.77;0.60;;;13.40;99.90;;;;;;5104406;28;20048;-64
2022/08/31 06:04:17;;;;;;;4.03;0.60;;;13.50;99.90;;;;;;5122034;27;20570;-67
2022/08/31 06:06:42;;;;;;;2.35;0.60;;;13.60;99.90;;;;;;5116932;27;20049;-66
2022/08/31 06:09:08;;;;;;;1.08;0.47;;;13.70;99.90;;;;;;5132686;27;20110;-64
2022/08/31 06:11:34;;;;;;;1.45;0.60;;;13.70;99.90;;;;;;5115635;27;20042;-64
2022/08/31 06:14:03;;;;;;;2.53;0.70;;;13.80;99.90;;;;;;5132142;27;20085;-66
2022/08/31 06:16:29;;;;;;;0.82;0.65;;;13.90;99.90;;;;;;5127967;27;20096;-67
2022/08/31 06:18:56;;;;;;;1.15;0.60;;;14.00;99.90;;;;;;5136056;27;20038;-64
2022/08/31 06:21:32;;;;;;;3.08;0.65;;;14.10;99.90;;;;;;5122262;27;20082;-64
2022/08/31 06:23:58;;;;;;;1.38;0.88;;;14.20;99.90;;;;;;5113896;27;20039;-66
2022/08/31 06:26:26;;;;;;;1.05;0.60;;;14.30;99.90;;;;;;5131001;27;20109;-67
2022/08/31 06:28:54;;;;;;;0.77;0.70;;;14.40;99.90;;;;;;5115001;27;20245;-68
2022/08/31 06:31:25;;;;;;;1.13;0.80;;;14.50;99.90;;;;;;5109387;27;20043;-64
2022/08/31 06:33:52;;;;;;;3.67;0.63;;;14.70;99.90;;;;;;5115988;27;20038;-66
2022/08/31 06:36:20;;;;;;;2.42;0.93;;;14.80;99.90;;;;;;5134070;27;20070;-67
2022/08/31 06:38:46;;;;;;;1.02;0.60;;;15.00;99.90;;;;;;5114904;27;20040;-69
2022/08/31 06:41:18;;;;;;;2.60;0.90;;;15.10;99.90;;;;;;5098579;27;20439;-66
2022/08/31 06:43:44;;;;;;;;;;;15.30;99.90;;;;;;5116609;27;20059;-67
2022/08/31 06:46:11;;;;;;;1.75;0.75;;;15.40;99.90;;;;;;5122396;27;20404;-67
2022/08/31 06:48:37;;;;;;;1.65;0.90;;;15.50;99.90;;;;;;5120972;27;20461;-66
2022/08/31 06:51:05;;;;;;;2.03;0.80;;;15.70;99.90;;;;;;5117678;27;20137;-66
2022/08/31 06:53:32;;;;;;;1.83;0.90;;;15.90;99.90;;;;;;5106459;28;20497;-67
2022/08/31 06:56:04;;;;;;;0.85;0.70;;;16.00;99.90;;;;;;5128834;27;20181;-65
2022/08/31 06:58:29;;;;;;;1.00;0.90;;;16.10;99.90;;;;;;5113528;27;20040;-64
2022/08/31 07:00:57;;;;;;;4.28;0.93;;;16.20;99.90;;;;;;5116612;27;20042;-65
2022/08/31 07:03:23;;;;;;;1.40;0.77;;;16.40;99.90;;;;;;5101303;27;20044;-66
2022/08/31 07:05:53;;;;;;;1.48;0.70;;;16.50;99.90;;;;;;5130621;27;20134;-67
2022/08/31 07:08:19;;;;;;;1.58;0.90;;;16.60;99.90;;;;;;5112588;27;20172;-65
2022/08/31 07:10:46;;;;;;;2.83;0.85;;;16.70;99.90;;;;;;5129365;27;20050;-66
2022/08/31 07:13:12;;;;;;;1.35;1.00;;;16.80;99.90;;;;;;5129904;27;20039;-66
2022/08/31 07:15:37;;;;;;;2.55;0.90;;;16.90;99.90;;;;;;5131739;27;20038;-66
2022/08/31 07:18:03;;;;;;;5.97;0.90;;;16.80;99.90;;;;;;5114410;27;20397;-67
2022/08/31 07:20:29;;;;;;;3.38;0.88;;;16.80;99.90;;;;;;5115792;27;20050;-66
2022/08/31 07:22:56;;;;;;;1.70;0.70;;;16.80;99.90;;;;;;5129480;27;20043;-66
2022/08/31 07:25:22;;;;;;;1.55;1.00;;;16.80;99.90;;;;;;5115601;27;20036;-67
2022/08/31 07:27:54;;;;;;;1.92;0.85;;;16.80;99.90;;;;;;5121529;27;20044;-66
2022/08/31 07:30:21;;;;;;;1.52;1.02;;;17.00;99.90;;;;;;5113196;28;20437;-66
2022/08/31 07:32:49;;;;;;;1.92;0.70;;;17.00;99.90;;;;;;5112546;27;20122;-67
2022/08/31 07:35:16;;;;;;;1.63;0.75;;;17.10;99.90;;;;;;5131692;27;20053;-65
2022/08/31 07:43:11;;;;;;;2.28;0.70;;;17.50;99.90;;;;;;5113687;27;20044;-68
2022/08/31 07:45:37;;;;;;;2.30;0.90;;;17.50;99.70;;;;;;5130113;27;20301;-64
2022/08/31 07:48:02;;;;;;;1.10;0.70;;;17.60;99.30;;;;;;5132134;27;20538;-64
2022/08/31 07:50:30;;;;;;;2.08;0.80;;;17.70;99.30;;;;;;5131831;27;20504;-66
2022/08/31 07:52:57;;;;;;;2.53;0.70;;;17.80;99.30;;;;;;5132164;27;20054;-63
2022/08/31 07:55:25;;;;;;;1.25;0.80;;;18.00;99.50;;;;;;5097811;28;20051;-65
2022/08/31 07:57:53;;;;;;;1.65;0.80;;;18.20;99.20;;;;;;5131338;27;20027;-66
2022/08/31 08:00:28;;;;;;;3.03;0.90;;;18.40;99.10;;;;;;5131705;27;20051;-66
2022/08/31 08:02:55;;;;;;;1.88;0.75;;;18.60;98.80;;;;;;5131643;27;20129;-64
2022/08/31 08:05:26;;;;;;;2.55;0.70;;;18.80;98.50;;;;;;5121791;27;20516;-65
2022/08/31 08:07:54;;;;;;;2.70;0.68;;;18.70;97.80;;;;;;5125775;27;20047;-66
2022/08/31 08:10:22;;;;;;;3.00;0.90;;;18.70;97.60;;;;;;5110837;28;20060;-66
2022/08/31 08:12:55;;;;;;;2.10;0.70;;;18.80;97.60;;;;;;5130222;27;20362;-66
2022/08/31 08:15:23;;;;;;;1.70;0.73;;;18.80;97.40;;;;;;5118927;27;20481;-66
2022/08/31 08:17:48;;;;;;;2.05;0.85;;;18.80;97.30;;;;;;5098616;28;20031;-69
2022/08/31 08:20:14;;;;;;;1.25;0.65;;;18.90;97.00;;;;;;5115134;27;20063;-65
2022/08/31 08:22:42;;;;;;;3.13;0.80;;;18.90;97.10;;;;;;5113998;27;20072;-65
2022/08/31 08:25:08;;;;;;;2.05;0.70;;;19.10;97.20;;;;;;5099445;27;20074;-64
2022/08/31 08:27:34;;;;;;;2.03;0.60;;;19.20;96.70;;;;;;5110818;27;20056;-66
2022/08/31 08:30:00;;;;;;;6.55;0.80;;;19.30;96.70;;;;;;5124620;27;20050;-65
2022/08/31 08:32:25;;;;;;;1.52;0.60;;;19.40;96.60;;;;;;5114245;27;20405;-66
2022/08/31 08:34:51;;;;;;;2.45;0.77;;;19.40;96.30;;;;;;5128816;27;20044;-66
2022/08/31 08:37:17;;;;;;;2.17;0.75;;;19.50;96.50;;;;;;5131095;27;20046;-65
2022/08/31 08:39:42;;;;;;;2.38;0.90;;;19.60;96.40;;;;;;5110148;28;20167;-65
2022/08/31 08:42:11;;;;;;;2.58;0.85;;;19.70;96.50;;;;;;5113158;27;20490;-63
2022/08/31 08:44:38;;;;;;;0.77;0.50;;;19.90;96.20;;;;;;5130344;27;20043;-64
2022/08/31 08:47:14;;;;;;;2.97;0.90;;;19.80;95.80;;;;;;5130895;27;20043;-65
2022/08/31 08:49:49;;;;;;;3.78;0.82;;;19.90;95.90;;;;;;5118488;27;20039;-66
2022/08/31 08:52:42;;;;;;;1.98;0.80;;;19.90;95.80;;;;;;5109936;28;20055;-67
2022/08/31 08:55:14;;;;;;;2.67;0.60;;;20.10;95.70;;;;;;5107229;28;20039;-65
2022/08/31 08:57:43;;;;;;;2.25;0.90;;;20.20;95.80;;;;;;5111364;28;20040;-66
2022/08/31 09:00:23;;;;;;;6.68;1.75;;;20.40;95.70;;;;;;5129866;27;20137;-67
2022/08/31 09:03:00;;;;;;;1.33;0.50;;;20.50;95.50;;;;;;5129836;27;20075;-66
2022/08/31 09:05:42;;;;;;;2.65;1.00;;;20.60;95.10;;;;;;5094354;28;20043;-64
2022/08/31 09:08:27;;;;;;;1.73;0.60;;;20.80;95.30;;;;;;5129231;27;20039;-64
2022/08/31 09:11:05;;;;;;;1.92;0.70;;;21.00;95.10;;;;;;5130306;27;20128;-65
2022/08/31 09:13:55;;;;;;;1.90;0.75;;;21.00;94.20;;;;;;5114863;27;20066;-67
2022/08/31 09:16:33;;;;;;;2.63;0.63;;;21.10;94.70;;;;;;5106319;28;20040;-67
2022/08/31 09:19:03;;;;;;;3.50;0.40;;;21.30;94.70;;;;;;5110912;28;20040;-66
2022/08/31 09:21:33;;;;;;;1.60;0.60;;;21.50;94.30;;;;;;5111078;28;20478;-67
2022/08/31 09:24:15;;;;;;;2.88;0.68;;;21.60;93.70;;;;;;5114994;27;20047;-65
2022/08/31 09:27:17;;;;;;;3.55;0.70;;;21.60;93.60;;;;;;5106257;28;20043;-68
2022/08/31 09:29:44;;;;;;;0.70;0.60;;;21.70;93.10;;;;;;5106191;28;20037;-65
2022/08/31 09:32:15;;;;;;;5.32;0.73;;;21.70;93.40;;;;;;5107191;27;20116;-67
2022/08/31 09:34:41;;;;;;;1.90;0.80;;;21.80;93.00;;;;;;5105370;28;20130;-66
2022/08/31 09:37:20;;;;;;;1.77;0.50;;;22.00;92.80;;;;;;5106290;28;20079;-67
2022/08/31 09:39:48;;;;;;;1.17;0.65;;;22.00;93.00;;;;;;5105603;28;20062;-69
2022/08/31 09:42:30;;;;;;;4.55;0.80;;;22.10;92.80;;;;;;5106272;27;20063;-65
2022/08/31 09:45:08;;;;;;;2.85;0.57;;;22.40;92.10;;;;;;5122144;27;20113;-67
2022/08/31 09:47:49;;;;;;;4.03;0.60;;;22.50;92.10;;;;;;5104323;28;20078;-66
2022/08/31 09:50:30;;;;;;;2.50;0.60;;;22.60;91.50;;;;;;5112651;27;21323;-66
2022/08/31 09:56:25;;;;;;;1.63;0.55;;;22.90;92.40;;;;;;5117564;28;20109;-65
2022/08/31 09:59:01;;;;;;;2.00;0.60;;;23.10;91.50;;;;;;5103429;28;20143;-66
2022/08/31 10:01:36;;;;;;;1.95;0.65;;;23.30;91.30;;;;;;5104858;28;20039;-65
2022/08/31 10:04:19;;;;;;;3.33;0.80;;;23.50;91.00;;;;;;5105625;28;20386;-64
2022/08/31 10:07:06;;;;;;;3.60;0.60;;;23.50;90.70;;;;;;5101625;28;20466;-68
2022/08/31 10:09:54;;;;;;;4.40;0.82;;;23.50;90.10;;;;;;5108435;28;20047;-69
2022/08/31 10:12:37;;;;;;;3.35;0.50;;;23.50;90.00;;;;;;5107736;28;20054;-70
2022/08/31 10:15:28;;;;;;;1.20;0.47;;;23.60;89.20;;;;;;5109152;28;20035;-67
2022/08/31 10:17:54;;;;;;;3.20;0.45;;;23.70;89.30;;;;;;5121843;28;20154;-69
2022/08/31 10:20:25;;;;;;;2.97;0.60;;;23.70;89.20;;;;;;5105095;28;20185;-66
2022/08/31 10:22:56;;;;;;;4.55;0.77;;;23.80;88.30;;;;;;5126689;28;20043;-65
2022/08/31 10:25:37;;;;;;;2.83;0.60;;;24.00;87.50;;;;;;5119644;28;20673;-68
2022/08/31 10:28:14;;;;;;;2.55;0.60;;;24.10;87.50;;;;;;5108599;28;20035;-67
2022/08/31 10:31:00;;;;;;;4.45;0.68;;;24.20;87.90;;;;;;5116920;28;20048;-64
2022/08/31 10:36:24;;;;;;;1.33;0.55;;;24.20;85.00;;;;;;5129165;28;20041;-67
2022/08/31 10:38:54;;;;;;;3.00;0.60;;;24.10;85.20;;;;;;5129839;28;20071;-68
2022/08/31 10:41:36;;;;;;;2.28;0.60;;;24.10;85.90;;;;;;5123907;27;20126;-68
2022/08/31 10:44:22;;;;;;;1.65;0.75;;;24.60;87.30;;;;;;5131215;27;20499;-72
2022/08/31 10:46:57;;;;;;;1.35;0.60;;;24.80;84.80;;;;;;5133401;27;20130;-68
2022/08/31 10:49:23;;;;;;;3.38;0.63;;;24.90;84.90;;;;;;5133603;27;20542;-66
2022/08/31 10:52:07;;;;;;;1.25;0.50;;;24.90;84.30;;;;;;5128415;27;20040;-68
2022/08/31 10:55:04;;;;;;;2.53;0.57;;;24.90;83.40;;;;;;5129963;27;20126;-69
2022/08/31 10:57:53;;;;;;;3.92;0.60;;;24.80;82.90;;;;;;5133357;27;20055;-67
2022/08/31 11:00:40;;;;;;;1.45;0.63;;;24.90;83.60;;;;;;5133264;27;20047;-68
2022/08/31 11:03:24;;;;;;;1.30;0.73;;;25.00;84.40;;;;;;5123120;27;20044;-68
2022/08/31 11:06:21;;;;;;;0.93;0.50;;;25.00;82.50;;;;;;5133015;27;20042;-67
2022/08/31 11:08:55;;;;;;;1.48;0.50;;;25.00;82.00;;;;;;5133138;27;20043;-67
2022/08/31 11:11:50;;;;;;;1.17;0.50;;;25.00;82.50;;;;;;5134130;27;20481;-69
2022/08/31 11:14:58;;;;;;;1.50;0.70;;;24.80;81.70;;;;;;5019572;28;20382;-72
2022/08/31 11:17:37;;;;;;;2.70;0.60;;;24.90;83.40;;;;;;5030343;28;20092;-67
2022/08/31 11:20:18;;;;;;;3.00;0.50;;;24.90;82.50;;;;;;5027946;28;20551;-67
2022/08/31 11:23:05;;;;;;;2.45;0.63;;;24.90;82.20;;;;;;4997770;28;20039;-65
2022/08/31 11:26:11;;;;;;;1.50;0.47;;;24.80;82.30;;;;;;5030139;28;20122;-67
2022/08/31 11:28:40;;;;;;;2.25;0.50;;;24.90;82.30;;;;;;5013490;28;20164;-68
2022/08/31 11:31:22;;;;;;;3.83;0.60;;;25.00;81.80;;;;;;5013908;28;20053;-68
2022/08/31 11:33:50;;;;;;;;;;;25.10;82.00;;;;;;5029682;28;20037;-68
2022/08/31 11:36:53;;;;;;;2.15;0.68;;;25.30;80.60;;;;;;5029467;28;19921;-66
2022/08/31 11:39:34;;;;;;;1.70;0.50;;;25.30;81.00;;;;;;4997008;28;20539;-65
2022/08/31 11:42:06;;;;;;;3.15;0.47;;;25.30;80.50;;;;;;5012695;28;20088;-68
2022/08/31 11:44:38;;;;;;;3.13;0.63;;;25.50;81.10;;;;;;5012989;28;20045;-64
2022/08/31 11:47:28;;;;;;;1.90;0.40;;;25.40;81.20;;;;;;5010798;28;20440;-68
2022/08/31 11:50:04;;;;;;;2.92;0.60;;;25.30;80.30;;;;;;5028295;28;20420;-66
2022/08/31 11:52:37;;;;;;;1.70;0.85;;;25.30;79.80;;;;;;5093439;28;20047;-68
2022/08/31 11:55:20;;;;;;;1.58;0.75;;;25.10;78.30;;;;;;5110428;27;20413;-69
2022/08/31 11:58:05;;;;;;;1.42;0.40;;;24.90;79.60;;;;;;5110198;27;20032;-64
2022/08/31 12:00:48;;;;;;;1.85;0.55;;;24.80;80.20;;;;;;5089920;28;20055;-68
2022/08/31 12:03:49;;;;;;;1.85;0.52;;;24.80;79.50;;;;;;5106900;27;20063;-67
2022/08/31 12:06:24;;;;;;;1.98;0.70;;;24.70;78.40;;;;;;5108680;28;20047;-66
2022/08/31 12:08:53;;;;;;;2.20;0.65;;;24.60;78.80;;;;;;5101496;27;20035;-66
2022/08/31 12:11:46;;;;;;;1.80;0.60;;;24.40;79.00;;;;;;5093003;28;20047;-67
2022/08/31 12:14:36;;;;;;;1.13;0.43;;;24.30;79.00;;;;;;5121270;27;20052;-67
2022/08/31 12:17:12;;;;;;;2.25;0.50;;;24.20;79.10;;;;;;5110100;28;20482;-66
2022/08/31 12:20:04;;;;;;;3.45;0.70;;;24.20;80.40;;;;;;5131106;27;20378;-67
2022/08/31 12:25:45;;;;;;;0.82;0.47;;;24.20;79.50;;;;;;5112440;27;20498;-69
2022/08/31 12:28:23;;;;;;;2.03;0.50;;;24.10;79.00;;;;;;5109838;28;20557;-65
2022/08/31 12:30:53;;;;;;;2.63;0.70;;;24.00;78.90;;;;;;5109602;28;20742;-68
2022/08/31 12:33:22;;;;;;;2.20;0.50;;;23.90;79.20;;;;;;5110633;28;20063;-68
2022/08/31 12:36:09;;;;;;;2.45;0.52;;;23.90;79.30;;;;;;5109928;27;20067;-65
2022/08/31 12:38:34;;;;;;;3.35;0.55;;;23.80;78.00;;;;;;5116449;27;20035;-64
2022/08/31 12:41:02;;;;;;;2.25;0.60;;;23.70;78.20;;;;;;5111813;27;20050;-68
2022/08/31 12:43:38;;;;;;;2.22;0.60;;;23.60;78.10;;;;;;5113284;27;20044;-65
2022/08/31 12:46:03;;;;;;;3.42;0.40;;;23.60;78.30;;;;;;5128979;27;20040;-65
2022/08/31 12:48:44;;;;;;;2.95;0.60;;;23.50;78.10;;;;;;5113903;27;20039;-67
2022/08/31 12:51:32;;;;;;;1.50;0.60;;;23.50;78.60;;;;;;5130793;27;20066;-67
2022/08/31 12:54:04;;;;;;;1.38;0.52;;;23.40;79.30;;;;;;5114089;27;20521;-68
2022/08/31 12:56:56;;;;;;;0.40;0.40;;;23.30;79.10;;;;;;5110990;27;20543;-67
2022/08/31 12:59:45;;;;;;;6.18;0.70;;;23.30;78.50;;;;;;5130858;27;20035;-66
2022/08/31 13:02:12;;;;;;;1.50;0.60;;;23.20;77.10;;;;;;5113456;27;20127;-70
2022/08/31 13:04:46;;;;;;;3.08;0.68;;;23.10;77.70;;;;;;5109441;27;20059;-68
2022/08/31 13:07:22;;;;;;;1.88;0.60;;;23.10;78.20;;;;;;5113858;27;20092;-65
2022/08/31 13:10:04;;;;;;;4.70;0.50;;;23.10;79.90;;;;;;5107799;28;20111;-66
2022/08/31 13:12:29;;;;;;;1.77;0.50;;;23.10;79.10;;;;;;5105621;28;20044;-67
2022/08/31 13:14:55;;;;;;;2.30;0.40;;;23.20;79.10;;;;;;5110691;27;20042;-67
2022/08/31 13:17:21;;;;;;;3.15;0.70;;;23.10;78.50;;;;;;5114466;27;20386;-68
2022/08/31 13:19:58;;;;;;;1.88;0.40;;;23.10;78.00;;;;;;5101912;28;20040;-68
2022/08/31 13:22:29;;;;;;;1.05;0.60;;;23.00;77.50;;;;;;5107941;28;20047;-68
2022/08/31 13:25:08;;;;;;;2.50;0.52;;;23.00;77.60;;;;;;5106545;28;20409;-67
2022/08/31 13:27:38;;;;;;;0.98;0.52;;;23.00;78.00;;;;;;5106468;27;20031;-65